Time;durP1;ratioP1;P1;durP2;ratioP2;P2;SDS_P1;SDS_P2;PMS_P1;PMS_P2;Temp;Humidity;BMP_temperature;BMP_pressure;BME280_temperature;BME280_humidity;BME280_pressure;Samples;Min_cycle;Max_cycle;Signal;HPM_P1;HPM_P2
2022/10/09 00:00:12;;;;;;;12.57;4.00;;;8.80;99.90;;;;;;5031800;28;20492;-62
2022/10/09 00:02:39;;;;;;;9.82;3.13;;;8.70;99.90;;;;;;5031687;28;20088;-64
2022/10/09 00:05:06;;;;;;;6.13;3.10;;;8.70;99.90;;;;;;5031803;28;20060;-63
2022/10/09 00:07:33;;;;;;;8.88;3.17;;;8.60;99.90;;;;;;5031708;28;20059;-63
2022/10/09 00:10:00;;;;;;;11.23;3.17;;;8.60;99.90;;;;;;5031602;28;20053;-64
2022/10/09 00:12:26;;;;;;;14.88;3.78;;;8.60;99.90;;;;;;5031688;28;20046;-64
2022/10/09 00:14:53;;;;;;;8.05;3.40;;;8.50;99.90;;;;;;5031546;28;20050;-62
2022/10/09 00:17:20;;;;;;;7.90;3.10;;;8.50;99.90;;;;;;5031868;28;20046;-63
2022/10/09 00:19:46;;;;;;;8.00;2.60;;;8.50;99.90;;;;;;5031438;28;20084;-64
2022/10/09 00:22:14;;;;;;;9.93;2.65;;;8.50;99.90;;;;;;5031679;28;20050;-64
2022/10/09 00:24:41;;;;;;;15.00;3.63;;;8.40;99.90;;;;;;5029034;28;20193;-63
2022/10/09 00:27:08;;;;;;;12.20;2.95;;;8.40;99.90;;;;;;5031538;28;20287;-63
2022/10/09 00:29:35;;;;;;;10.38;3.10;;;8.50;99.90;;;;;;5027946;28;20048;-63
2022/10/09 00:32:01;;;;;;;6.75;2.38;;;8.40;99.90;;;;;;5031405;28;20124;-64
2022/10/09 00:34:28;;;;;;;4.50;2.40;;;8.40;99.90;;;;;;5030422;28;20049;-64
2022/10/09 00:36:55;;;;;;;5.95;2.05;;;8.40;99.90;;;;;;5029807;28;20041;-63
2022/10/09 00:39:21;;;;;;;7.68;2.47;;;8.30;99.90;;;;;;5029900;28;20064;-63
2022/10/09 00:41:48;;;;;;;5.85;2.55;;;8.30;99.90;;;;;;5031094;28;20140;-65
2022/10/09 00:44:53;;;;;;;8.00;2.55;;;8.30;99.90;;;;;;5031114;28;20055;-64
2022/10/09 00:47:24;;;;;;;10.35;3.30;;;8.30;99.90;;;;;;5031083;28;20059;-64
2022/10/09 00:49:52;;;;;;;6.38;2.33;;;8.30;99.90;;;;;;5021318;28;20045;-64
2022/10/09 00:52:20;;;;;;;8.50;3.20;;;8.30;99.90;;;;;;5027815;28;20050;-63
2022/10/09 00:54:46;;;;;;;7.88;2.63;;;8.30;99.90;;;;;;4676589;28;9999623;-64
2022/10/09 00:57:13;;;;;;;5.32;2.72;;;8.30;99.90;;;;;;5025264;28;20619;-64
2022/10/09 00:59:40;;;;;;;14.05;2.67;;;8.20;99.90;;;;;;5028542;28;20033;-63
2022/10/09 01:02:07;;;;;;;6.22;2.80;;;8.30;99.90;;;;;;5011126;28;20309;-64
2022/10/09 01:04:34;;;;;;;5.60;2.25;;;8.30;99.90;;;;;;5028673;28;20059;-64
2022/10/09 01:07:24;;;;;;;12.90;3.13;;;8.20;99.90;;;;;;5030356;28;20053;-63
2022/10/09 01:10:07;;;;;;;12.02;3.42;;;8.20;99.90;;;;;;5030585;28;20049;-63
2022/10/09 01:12:41;;;;;;;7.57;2.80;;;8.20;99.90;;;;;;5013898;28;20076;-63
2022/10/09 01:15:13;;;;;;;;;;;8.10;99.90;;;;;;5009259;28;20099;-65
2022/10/09 01:17:57;;;;;;;5.70;2.20;;;8.30;99.90;;;;;;5020022;28;20105;-64
2022/10/09 01:20:43;;;;;;;7.22;2.60;;;8.10;99.90;;;;;;5025918;28;20046;-63
2022/10/09 01:23:47;;;;;;;10.55;2.67;;;8.20;99.90;;;;;;5029475;28;20076;-63
2022/10/09 01:26:31;;;;;;;9.30;2.47;;;8.10;99.90;;;;;;5030304;28;20049;-64
2022/10/09 01:29:04;;;;;;;8.52;2.38;;;8.10;99.90;;;;;;5030488;28;20094;-63
2022/10/09 01:31:31;;;;;;;7.18;2.33;;;8.10;99.90;;;;;;5026761;28;20048;-64
2022/10/09 01:33:58;;;;;;;8.05;2.25;;;8.00;99.90;;;;;;5022151;28;20041;-63
2022/10/09 01:36:25;;;;;;;5.43;2.25;;;8.00;99.90;;;;;;5029176;28;20042;-63
2022/10/09 01:38:51;;;;;;;7.63;2.40;;;8.00;99.90;;;;;;5021377;28;20056;-63
2022/10/09 01:41:18;;;;;;;3.60;1.85;;;8.00;99.90;;;;;;5028791;28;20045;-63
2022/10/09 01:43:45;;;;;;;7.65;2.30;;;7.90;99.90;;;;;;5030106;28;20045;-64
2022/10/09 01:46:23;;;;;;;7.45;2.70;;;7.90;99.90;;;;;;5030121;28;20045;-63
2022/10/09 01:49:01;;;;;;;10.18;2.65;;;7.90;99.90;;;;;;5001163;28;20052;-63
2022/10/09 01:51:31;;;;;;;7.97;2.72;;;7.80;99.90;;;;;;5013327;28;20045;-63
2022/10/09 01:53:58;;;;;;;4.20;2.38;;;7.80;99.90;;;;;;5021741;28;20068;-63
2022/10/09 01:56:25;;;;;;;7.18;2.05;;;7.80;99.90;;;;;;5028716;28;20375;-63
2022/10/09 01:58:55;;;;;;;9.32;2.67;;;7.90;99.90;;;;;;5021095;28;20049;-63
2022/10/09 02:01:32;;;;;;;9.25;2.15;;;7.80;99.90;;;;;;5028556;28;20052;-63
2022/10/09 02:03:59;;;;;;;6.55;2.17;;;7.80;99.90;;;;;;5022297;28;20049;-63
2022/10/09 02:06:26;;;;;;;10.48;2.60;;;7.80;99.90;;;;;;5031339;28;20053;-63
2022/10/09 02:08:54;;;;;;;5.40;2.40;;;7.80;99.90;;;;;;5032007;28;20057;-63
2022/10/09 02:11:21;;;;;;;8.10;2.47;;;7.70;99.90;;;;;;5032233;28;20045;-64
2022/10/09 02:13:51;;;;;;;5.63;1.92;;;7.80;99.90;;;;;;5031400;28;20235;-64
2022/10/09 02:16:28;;;;;;;6.75;2.33;;;7.80;99.90;;;;;;5032379;28;20056;-63
2022/10/09 02:19:07;;;;;;;4.68;1.95;;;7.80;99.90;;;;;;5031803;28;20044;-63
2022/10/09 02:21:51;;;;;;;4.18;2.08;;;7.80;99.90;;;;;;5030085;28;20495;-62
2022/10/09 02:24:21;;;;;;;11.20;3.05;;;7.70;99.90;;;;;;5030765;28;20133;-63
2022/10/09 02:26:48;;;;;;;8.15;3.33;;;7.70;99.90;;;;;;5030888;28;20081;-63
2022/10/09 02:29:15;;;;;;;7.40;2.53;;;7.70;99.90;;;;;;5031187;28;20565;-63
2022/10/09 02:31:42;;;;;;;5.60;1.67;;;7.60;99.90;;;;;;5031533;28;20048;-62
2022/10/09 02:34:11;;;;;;;9.75;2.50;;;7.50;99.90;;;;;;5030836;28;20067;-64
2022/10/09 02:36:37;;;;;;;4.63;1.80;;;7.50;99.90;;;;;;5048880;28;20049;-63
2022/10/09 02:39:04;;;;;;;7.53;2.42;;;7.50;99.90;;;;;;5048766;28;20048;-63
2022/10/09 02:41:31;;;;;;;11.18;2.53;;;7.50;99.90;;;;;;5048857;28;20048;-63
2022/10/09 02:43:58;;;;;;;4.18;1.70;;;7.50;99.90;;;;;;5048724;28;20049;-62
2022/10/09 02:46:25;;;;;;;7.32;1.42;;;7.50;99.90;;;;;;5048702;28;20059;-62
2022/10/09 02:48:52;;;;;;;14.70;1.95;;;7.50;99.90;;;;;;5048519;28;20439;-62
2022/10/09 02:51:18;;;;;;;6.30;1.90;;;7.40;99.90;;;;;;5048660;28;20055;-62
2022/10/09 02:53:45;;;;;;;9.50;2.95;;;7.40;99.90;;;;;;5048421;28;20514;-62
2022/10/09 02:56:12;;;;;;;5.30;1.70;;;7.40;99.90;;;;;;5048541;28;20487;-63
2022/10/09 02:58:39;;;;;;;3.50;1.63;;;7.40;99.90;;;;;;5030637;28;20044;-62
2022/10/09 03:01:06;;;;;;;5.68;2.05;;;7.40;99.90;;;;;;5016668;28;20049;-63
2022/10/09 03:03:32;;;;;;;7.00;1.55;;;7.30;99.90;;;;;;5031522;28;20061;-63
2022/10/09 03:06:10;;;;;;;13.30;2.50;;;7.40;99.90;;;;;;5048114;28;20049;-62
2022/10/09 03:08:42;;;;;;;4.63;1.70;;;7.40;99.90;;;;;;5048401;28;20045;-63
2022/10/09 03:11:09;;;;;;;4.65;1.60;;;7.40;99.90;;;;;;5048240;28;20059;-63
2022/10/09 03:13:36;;;;;;;5.47;1.50;;;7.40;99.90;;;;;;5030361;28;20049;-64
2022/10/09 03:16:15;;;;;;;6.43;1.52;;;7.50;99.90;;;;;;5048205;28;20049;-62
2022/10/09 03:18:42;;;;;;;4.13;1.60;;;7.30;99.90;;;;;;5048296;28;20049;-64
2022/10/09 03:21:17;;;;;;;12.32;2.25;;;7.30;99.90;;;;;;5048444;28;20396;-62
2022/10/09 03:23:43;;;;;;;3.03;1.35;;;7.30;99.90;;;;;;5048406;28;20055;-62
2022/10/09 03:26:12;;;;;;;6.80;1.48;;;7.30;99.90;;;;;;5048061;28;20055;-62
2022/10/09 03:28:43;;;;;;;4.97;2.03;;;7.20;99.90;;;;;;5047918;28;20110;-63
2022/10/09 03:31:10;;;;;;;5.15;1.92;;;7.20;99.90;;;;;;5030258;28;20517;-63
2022/10/09 03:33:57;;;;;;;6.70;1.55;;;7.20;99.90;;;;;;5048056;28;20041;-62
2022/10/09 03:36:24;;;;;;;3.97;1.67;;;7.20;99.90;;;;;;5048279;28;20052;-62
2022/10/09 03:38:50;;;;;;;6.80;1.95;;;7.20;99.90;;;;;;5048244;28;20049;-63
2022/10/09 03:41:17;;;;;;;4.20;1.45;;;7.10;99.90;;;;;;5048010;28;20132;-63
2022/10/09 03:43:44;;;;;;;5.95;1.80;;;7.10;99.90;;;;;;5048015;28;20048;-63
2022/10/09 03:46:10;;;;;;;4.70;2.00;;;7.00;99.90;;;;;;5047963;28;20071;-61
2022/10/09 03:48:37;;;;;;;4.93;1.98;;;7.00;99.90;;;;;;5030405;28;20131;-62
2022/10/09 03:51:04;;;;;;;8.75;2.15;;;7.00;99.90;;;;;;5048004;28;20052;-64
2022/10/09 03:53:31;;;;;;;6.82;1.65;;;7.00;99.90;;;;;;5048057;28;20053;-62
2022/10/09 03:55:58;;;;;;;4.10;1.90;;;7.00;99.90;;;;;;5047639;28;20044;-62
2022/10/09 03:58:25;;;;;;;4.78;2.28;;;7.00;99.90;;;;;;5048294;28;20045;-62
2022/10/09 04:00:52;;;;;;;5.55;1.73;;;7.00;99.90;;;;;;5048019;28;20053;-63
2022/10/09 04:03:19;;;;;;;9.52;1.83;;;7.00;99.90;;;;;;5045934;28;20052;-62
2022/10/09 04:05:46;;;;;;;4.00;2.05;;;7.00;99.90;;;;;;5046926;28;20072;-63
2022/10/09 04:08:12;;;;;;;8.98;1.40;;;7.00;99.90;;;;;;5047892;28;20131;-62
2022/10/09 04:10:39;;;;;;;6.57;1.55;;;7.10;99.90;;;;;;5047884;28;20048;-61
2022/10/09 04:13:06;;;;;;;9.88;1.67;;;7.00;99.90;;;;;;5047775;28;20048;-63
2022/10/09 04:15:34;;;;;;;2.95;2.10;;;7.00;99.90;;;;;;5032563;28;20049;-63
2022/10/09 04:18:00;;;;;;;8.80;1.83;;;7.00;99.90;;;;;;5047275;28;20088;-62
2022/10/09 04:20:27;;;;;;;8.35;1.70;;;7.00;99.90;;;;;;5047699;28;20531;-62
2022/10/09 04:22:54;;;;;;;7.28;1.70;;;7.00;99.90;;;;;;5029744;28;20571;-62
2022/10/09 04:25:21;;;;;;;3.30;1.75;;;6.90;99.90;;;;;;5029503;28;20053;-64
2022/10/09 04:27:47;;;;;;;22.88;4.95;;;7.00;99.90;;;;;;5047564;28;20041;-62
2022/10/09 04:30:14;;;;;;;7.50;1.63;;;6.90;99.90;;;;;;5050146;28;20495;-63
2022/10/09 04:32:41;;;;;;;9.82;2.00;;;6.80;99.90;;;;;;5050756;28;20128;-63
2022/10/09 04:35:08;;;;;;;3.53;1.77;;;6.80;99.90;;;;;;5051002;28;20071;-62
2022/10/09 04:37:35;;;;;;;5.30;1.77;;;6.80;99.90;;;;;;5050767;28;20092;-63
2022/10/09 04:40:02;;;;;;;9.90;1.58;;;6.70;99.90;;;;;;5051106;28;20456;-63
2022/10/09 04:42:29;;;;;;;8.00;2.00;;;6.70;99.90;;;;;;5050920;28;20071;-62
2022/10/09 04:44:56;;;;;;;6.30;1.70;;;6.70;99.90;;;;;;5032993;28;20045;-64
2022/10/09 04:47:23;;;;;;;4.13;1.50;;;6.70;99.90;;;;;;5050799;28;20045;-63
2022/10/09 04:49:49;;;;;;;5.45;1.73;;;6.70;99.90;;;;;;5050846;28;20053;-67
2022/10/09 04:52:16;;;;;;;5.05;2.35;;;6.70;99.90;;;;;;5050846;28;20044;-64
2022/10/09 04:54:43;;;;;;;2.92;1.50;;;6.70;99.90;;;;;;5051000;28;20411;-62
2022/10/09 04:57:09;;;;;;;6.13;1.48;;;6.80;99.90;;;;;;5051226;28;20059;-62
2022/10/09 04:59:36;;;;;;;4.68;1.40;;;6.70;99.90;;;;;;5047238;28;20044;-63
2022/10/09 05:02:03;;;;;;;4.85;2.08;;;6.70;99.90;;;;;;5050125;28;20056;-64
2022/10/09 05:04:29;;;;;;;3.60;1.83;;;6.70;99.90;;;;;;5049796;28;20130;-64
2022/10/09 05:06:56;;;;;;;2.58;1.48;;;6.70;99.90;;;;;;5051028;28;20055;-63
2022/10/09 05:09:23;;;;;;;4.30;1.50;;;6.70;99.90;;;;;;5050618;28;20071;-63
2022/10/09 05:11:50;;;;;;;6.43;1.75;;;6.70;99.90;;;;;;5050884;28;20049;-63
2022/10/09 05:14:17;;;;;;;3.47;1.73;;;6.60;99.90;;;;;;5050447;28;20495;-63
2022/10/09 05:16:43;;;;;;;4.57;1.50;;;6.70;99.90;;;;;;5050698;28;20057;-64
2022/10/09 05:19:31;;;;;;;3.60;1.40;;;6.70;99.90;;;;;;5050556;28;20053;-63
2022/10/09 05:21:59;;;;;;;9.65;2.03;;;6.70;99.90;;;;;;5050471;28;20055;-63
2022/10/09 05:24:26;;;;;;;7.22;1.70;;;6.70;99.90;;;;;;5050303;28;20047;-63
2022/10/09 05:26:53;;;;;;;6.40;1.70;;;6.60;99.90;;;;;;5050525;28;20343;-63
2022/10/09 05:29:20;;;;;;;5.40;2.40;;;6.60;99.90;;;;;;5050154;28;20045;-62
2022/10/09 05:31:46;;;;;;;3.22;1.30;;;6.60;99.90;;;;;;5050346;28;20057;-64
2022/10/09 05:34:15;;;;;;;6.88;1.88;;;6.60;99.90;;;;;;5050093;28;20045;-63
2022/10/09 05:36:42;;;;;;;2.78;1.38;;;6.60;99.90;;;;;;5050312;28;20075;-64
2022/10/09 05:39:08;;;;;;;4.65;1.50;;;6.50;99.90;;;;;;5050066;28;20063;-64
2022/10/09 05:41:35;;;;;;;6.82;1.80;;;6.50;99.90;;;;;;5050236;28;20057;-64
2022/10/09 05:44:02;;;;;;;10.15;2.33;;;6.60;99.90;;;;;;5050092;28;20041;-64
2022/10/09 05:46:29;;;;;;;5.70;2.38;;;6.50;99.90;;;;;;5032271;28;20053;-63
2022/10/09 05:49:00;;;;;;;4.03;1.45;;;6.50;99.90;;;;;;5049830;28;20579;-63
2022/10/09 05:51:32;;;;;;;3.60;1.38;;;6.50;99.90;;;;;;5050034;28;20129;-64
2022/10/09 05:54:00;;;;;;;9.55;2.95;;;6.50;99.90;;;;;;5049870;28;20049;-63
2022/10/09 05:56:35;;;;;;;7.05;1.67;;;6.50;99.90;;;;;;5032013;28;20265;-63
2022/10/09 05:59:06;;;;;;;6.05;1.65;;;6.50;99.90;;;;;;5050021;28;20122;-64
2022/10/09 06:01:35;;;;;;;6.45;1.88;;;6.50;99.90;;;;;;5048982;28;20048;-64
2022/10/09 06:04:02;;;;;;;6.53;1.67;;;6.50;99.90;;;;;;5049740;28;20055;-64
2022/10/09 06:06:31;;;;;;;6.68;1.85;;;6.50;99.90;;;;;;5031852;28;20048;-63
2022/10/09 06:08:58;;;;;;;10.23;1.42;;;6.50;99.90;;;;;;5031972;28;20491;-62
2022/10/09 06:11:27;;;;;;;9.50;3.08;;;6.50;99.90;;;;;;5049196;28;20056;-63
2022/10/09 06:13:54;;;;;;;5.43;1.50;;;6.40;99.90;;;;;;5049860;28;20072;-62
2022/10/09 06:16:26;;;;;;;4.03;1.85;;;6.40;99.90;;;;;;5049376;28;20131;-62
2022/10/09 06:18:53;;;;;;;2.63;1.50;;;6.40;99.90;;;;;;5031747;28;20044;-62
2022/10/09 06:21:22;;;;;;;2.97;1.50;;;6.40;99.90;;;;;;5049187;28;20045;-63
2022/10/09 06:23:49;;;;;;;5.95;2.58;;;6.40;99.90;;;;;;5031524;28;20051;-63
2022/10/09 06:26:16;;;;;;;8.90;2.30;;;6.50;99.90;;;;;;5049050;28;20423;-63
2022/10/09 06:28:43;;;;;;;7.75;2.92;;;6.50;99.90;;;;;;5049257;28;20056;-64
2022/10/09 06:31:14;;;;;;;3.75;1.88;;;6.50;99.90;;;;;;5048892;28;20044;-63
2022/10/09 06:33:42;;;;;;;8.25;2.25;;;6.50;99.90;;;;;;5049088;28;20045;-63
2022/10/09 06:36:13;;;;;;;5.20;2.15;;;6.50;99.90;;;;;;5031418;28;20052;-63
2022/10/09 06:38:40;;;;;;;6.50;2.28;;;6.50;99.90;;;;;;5049366;28;20123;-62
2022/10/09 06:41:12;;;;;;;6.47;1.85;;;6.50;99.90;;;;;;5048830;28;20529;-63
2022/10/09 06:43:39;;;;;;;7.60;2.03;;;6.60;99.90;;;;;;5049199;28;20040;-62
2022/10/09 06:46:07;;;;;;;6.75;2.22;;;6.60;99.90;;;;;;5048669;28;20053;-62
2022/10/09 06:48:35;;;;;;;6.38;2.60;;;6.60;99.90;;;;;;5048839;28;20060;-62
2022/10/09 06:51:09;;;;;;;16.75;3.20;;;6.60;99.90;;;;;;5048219;28;20083;-62
2022/10/09 06:53:36;;;;;;;18.17;2.63;;;6.70;99.90;;;;;;5047986;28;20077;-63
2022/10/09 06:56:03;;;;;;;9.73;4.68;;;6.70;99.90;;;;;;5048155;28;20376;-62
2022/10/09 06:58:30;;;;;;;7.07;2.42;;;6.70;99.90;;;;;;5048124;28;20162;-62
2022/10/09 07:01:10;;;;;;;5.05;1.80;;;6.70;99.90;;;;;;5030616;28;20059;-63
2022/10/09 07:03:39;;;;;;;4.68;1.70;;;6.70;99.90;;;;;;5047884;28;20131;-63
2022/10/09 07:06:12;;;;;;;10.45;2.75;;;6.70;99.90;;;;;;5048140;28;20065;-63
2022/10/09 07:08:40;;;;;;;5.38;2.13;;;6.80;99.90;;;;;;5047608;28;20517;-63
2022/10/09 07:11:12;;;;;;;5.03;2.08;;;6.80;99.90;;;;;;5030498;28;20115;-62
2022/10/09 07:13:39;;;;;;;11.18;2.00;;;6.90;99.90;;;;;;5030606;28;20045;-62
2022/10/09 07:16:06;;;;;;;6.10;2.15;;;7.10;99.90;;;;;;5048234;28;20049;-63
2022/10/09 07:18:33;;;;;;;4.03;1.65;;;7.10;99.90;;;;;;5030287;28;20055;-64
2022/10/09 07:21:02;;;;;;;7.65;1.67;;;7.20;99.90;;;;;;5048100;28;20045;-64
2022/10/09 07:23:29;;;;;;;9.70;2.15;;;7.30;99.90;;;;;;5047806;28;20041;-63
2022/10/09 07:25:56;;;;;;;6.60;2.20;;;7.40;99.90;;;;;;5047976;28;20057;-62
2022/10/09 07:28:24;;;;;;;9.02;2.47;;;7.50;99.90;;;;;;5047966;28;20051;-64
2022/10/09 07:30:51;;;;;;;4.80;2.05;;;7.60;99.90;;;;;;5048482;28;20045;-63
2022/10/09 07:33:18;;;;;;;12.25;3.90;;;7.70;99.90;;;;;;5048006;28;20045;-61
2022/10/09 07:35:55;;;;;;;5.70;2.13;;;7.80;99.90;;;;;;5047650;28;20049;-62
2022/10/09 07:38:23;;;;;;;9.70;1.95;;;8.00;99.90;;;;;;5047469;28;20044;-63
2022/10/09 07:40:50;;;;;;;5.07;1.65;;;8.10;99.90;;;;;;5030038;28;20511;-64
2022/10/09 07:43:17;;;;;;;6.88;1.92;;;8.30;99.90;;;;;;5029933;28;20049;-64
2022/10/09 07:45:44;;;;;;;11.55;1.60;;;8.40;99.90;;;;;;5047957;28;20492;-64
2022/10/09 07:48:12;;;;;;;11.63;1.80;;;8.60;99.90;;;;;;5047211;28;20052;-62
2022/10/09 07:50:39;;;;;;;8.85;1.83;;;8.70;99.90;;;;;;5047703;28;20048;-63
2022/10/09 07:53:07;;;;;;;4.43;1.45;;;9.00;99.90;;;;;;5047531;28;20140;-63
2022/10/09 07:55:34;;;;;;;8.52;2.17;;;9.10;99.90;;;;;;5047380;28;20484;-63
2022/10/09 07:58:01;;;;;;;9.70;1.65;;;9.20;99.90;;;;;;5047367;28;20056;-63
2022/10/09 08:00:28;;;;;;;7.40;1.75;;;9.40;99.90;;;;;;5046589;28;20478;-63
2022/10/09 08:02:55;;;;;;;5.47;1.50;;;9.50;99.90;;;;;;5047347;28;20513;-64
2022/10/09 08:05:22;;;;;;;8.75;1.33;;;9.70;99.90;;;;;;5050333;28;20103;-65
2022/10/09 08:07:48;;;;;;;5.88;1.73;;;9.80;99.90;;;;;;5051606;28;20495;-64
2022/10/09 08:10:15;;;;;;;8.65;1.80;;;10.00;99.90;;;;;;5051346;28;20059;-64
2022/10/09 08:12:42;;;;;;;4.82;1.20;;;10.10;99.90;;;;;;5050117;28;20476;-64
2022/10/09 08:15:09;;;;;;;8.88;1.45;;;10.30;99.90;;;;;;4699062;28;10000491;-64
2022/10/09 08:17:36;;;;;;;12.55;2.65;;;10.40;99.90;;;;;;5029756;28;20459;-65
2022/10/09 08:20:03;;;;;;;10.63;1.35;;;10.60;99.90;;;;;;5047144;28;20056;-64
2022/10/09 08:22:30;;;;;;;8.55;2.15;;;10.70;99.90;;;;;;5047544;28;20053;-64
2022/10/09 08:24:57;;;;;;;5.40;1.50;;;10.80;99.90;;;;;;5047056;28;20131;-63
2022/10/09 08:27:24;;;;;;;5.25;1.65;;;11.00;99.90;;;;;;5047449;28;20095;-63
2022/10/09 08:29:51;;;;;;;9.93;1.83;;;11.10;99.90;;;;;;5029749;28;20049;-64
2022/10/09 08:32:18;;;;;;;9.40;1.40;;;11.20;99.90;;;;;;5029326;28;20345;-63
2022/10/09 08:34:45;;;;;;;8.82;1.20;;;11.40;99.90;;;;;;5047241;28;20048;-64
2022/10/09 08:37:12;;;;;;;5.72;1.40;;;11.50;99.90;;;;;;5047131;28;20048;-63
2022/10/09 08:39:39;;;;;;;7.20;1.40;;;11.70;99.90;;;;;;5047336;28;20048;-63
2022/10/09 08:42:05;;;;;;;6.00;1.25;;;12.00;99.90;;;;;;5047406;28;20266;-64
2022/10/09 08:44:40;;;;;;;7.15;1.67;;;12.30;99.90;;;;;;5029739;28;20053;-64
2022/10/09 08:47:10;;;;;;;8.57;2.00;;;12.70;99.90;;;;;;5029244;28;20059;-64
2022/10/09 08:49:43;;;;;;;8.98;1.25;;;13.00;99.90;;;;;;5046481;28;20056;-64
2022/10/09 08:52:32;;;;;;;5.72;1.70;;;13.40;99.90;;;;;;5029297;28;20049;-65
2022/10/09 08:55:10;;;;;;;5.18;1.25;;;13.80;99.90;;;;;;5034398;28;20076;-65
2022/10/09 08:57:38;;;;;;;9.30;2.08;;;14.10;99.90;;;;;;5026833;28;20431;-64
2022/10/09 09:00:19;;;;;;;11.02;1.63;;;14.40;99.90;;;;;;5029355;28;20052;-65
2022/10/09 09:03:05;;;;;;;11.63;1.88;;;14.60;99.90;;;;;;5046739;28;20215;-65
2022/10/09 09:06:17;;;;;;;5.18;1.25;;;14.70;99.90;;;;;;5022952;28;20411;-64
2022/10/09 09:08:47;;;;;;;7.45;1.30;;;14.80;99.90;;;;;;5019469;28;20069;-66
2022/10/09 09:11:40;;;;;;;7.88;1.27;;;14.90;99.90;;;;;;5020799;28;20041;-67
2022/10/09 09:14:38;;;;;;;15.65;1.52;;;14.90;99.90;;;;;;5024938;28;20429;-66
2022/10/09 09:17:14;;;;;;;11.40;1.45;;;14.80;99.90;;;;;;5024183;28;20053;-65
2022/10/09 09:19:45;;;;;;;7.43;1.42;;;14.70;99.90;;;;;;5026563;28;20535;-67
2022/10/09 09:22:13;;;;;;;4.70;1.45;;;14.60;99.90;;;;;;5019703;28;20179;-66
2022/10/09 09:24:44;;;;;;;6.05;1.02;;;14.50;99.90;;;;;;5025228;28;20099;-66
2022/10/09 09:27:32;;;;;;;9.73;1.40;;;14.50;99.90;;;;;;5019713;28;20675;-67
2022/10/09 09:30:28;;;;;;;8.18;1.20;;;14.30;99.90;;;;;;5025059;28;20542;-66
2022/10/09 09:33:10;;;;;;;9.60;1.42;;;14.20;99.90;;;;;;5025117;28;20071;-65
2022/10/09 09:35:50;;;;;;;9.38;2.45;;;14.20;99.90;;;;;;5006327;28;20073;-67
2022/10/09 09:38:17;;;;;;;9.75;1.45;;;14.20;99.90;;;;;;5002156;28;20522;-67
2022/10/09 09:40:44;;;;;;;7.60;1.20;;;14.30;99.90;;;;;;5026587;28;20057;-67
2022/10/09 09:43:17;;;;;;;11.68;1.60;;;14.30;99.90;;;;;;5018679;28;20045;-66
2022/10/09 09:45:45;;;;;;;5.35;1.23;;;14.40;99.90;;;;;;5017034;28;20050;-65
2022/10/09 09:48:19;;;;;;;5.22;1.20;;;14.40;99.90;;;;;;5019127;28;20583;-68
2022/10/09 09:50:45;;;;;;;6.63;1.20;;;14.40;99.90;;;;;;5023837;28;20068;-67
2022/10/09 09:53:40;;;;;;;4.50;1.05;;;14.50;99.90;;;;;;5022499;28;20053;-70
2022/10/09 09:56:07;;;;;;;8.95;1.85;;;14.50;99.90;;;;;;5018114;28;20072;-65
2022/10/09 09:58:54;;;;;;;6.82;1.38;;;14.60;99.90;;;;;;5008307;28;20056;-65
2022/10/09 10:01:26;;;;;;;5.93;1.23;;;14.60;99.90;;;;;;5015215;28;20080;-67
2022/10/09 10:03:54;;;;;;;10.50;1.48;;;14.60;99.90;;;;;;5024650;28;20049;-66
2022/10/09 10:06:27;;;;;;;7.85;1.65;;;14.60;99.90;;;;;;5019818;28;20052;-67
2022/10/09 10:08:59;;;;;;;10.60;1.40;;;14.70;99.90;;;;;;5022955;28;20099;-65
2022/10/09 10:11:27;;;;;;;7.07;1.95;;;14.70;99.90;;;;;;5020858;28;20128;-66
2022/10/09 10:13:53;;;;;;;8.43;1.95;;;14.70;99.90;;;;;;5023824;28;20053;-66
2022/10/09 10:16:25;;;;;;;5.28;1.35;;;14.70;99.90;;;;;;5024523;28;20519;-64
2022/10/09 10:18:52;;;;;;;12.52;1.90;;;14.70;99.90;;;;;;4995887;28;20144;-64
2022/10/09 10:21:20;;;;;;;7.13;1.70;;;14.70;99.90;;;;;;5015205;28;20049;-66
2022/10/09 10:23:55;;;;;;;7.30;1.73;;;14.80;99.90;;;;;;5027285;28;20057;-66
2022/10/09 10:26:40;;;;;;;6.35;1.58;;;15.00;99.90;;;;;;5030733;28;20288;-66
2022/10/09 10:29:26;;;;;;;9.20;2.13;;;15.00;99.90;;;;;;5010260;28;20049;-66
2022/10/09 10:32:01;;;;;;;4.93;1.30;;;15.10;99.90;;;;;;5020639;28;20053;-67
2022/10/09 10:34:34;;;;;;;12.52;2.08;;;15.20;99.90;;;;;;5026573;28;20072;-66
2022/10/09 10:37:14;;;;;;;6.75;1.45;;;15.30;99.90;;;;;;5023490;28;20052;-66
2022/10/09 10:39:45;;;;;;;9.10;1.98;;;15.40;99.90;;;;;;5019751;28;20048;-66
2022/10/09 10:42:54;;;;;;;9.90;2.47;;;15.50;99.90;;;;;;5017165;28;20552;-66
2022/10/09 10:45:36;;;;;;;5.63;1.38;;;15.50;99.90;;;;;;5010391;28;20057;-66
2022/10/09 10:48:03;;;;;;;6.28;1.60;;;15.50;99.90;;;;;;5015311;28;20056;-68
2022/10/09 10:50:35;;;;;;;6.57;2.67;;;15.60;99.90;;;;;;5022450;28;20067;-67
2022/10/09 10:53:13;;;;;;;5.63;1.38;;;15.60;99.90;;;;;;5008482;28;20046;-67
2022/10/09 10:55:54;;;;;;;5.78;1.35;;;15.60;99.90;;;;;;5023095;28;20160;-67
2022/10/09 10:58:29;;;;;;;9.48;2.25;;;15.60;99.90;;;;;;5005092;28;20057;-67
2022/10/09 11:01:05;;;;;;;6.03;1.80;;;15.70;99.90;;;;;;5015162;28;20049;-66
2022/10/09 11:03:59;;;;;;;8.48;1.70;;;15.80;99.90;;;;;;5023184;28;20137;-66
2022/10/09 11:06:35;;;;;;;8.15;1.48;;;15.90;99.90;;;;;;5020825;28;20141;-67
2022/10/09 11:09:07;;;;;;;6.20;1.55;;;16.00;99.90;;;;;;5024895;28;20563;-67
2022/10/09 11:11:37;;;;;;;6.60;1.30;;;16.00;99.90;;;;;;5025227;28;20140;-67
2022/10/09 11:14:32;;;;;;;6.88;1.50;;;16.00;99.90;;;;;;5041879;28;20322;-67
2022/10/09 11:16:59;;;;;;;5.88;1.17;;;16.00;99.90;;;;;;5043077;28;20060;-67
2022/10/09 11:19:44;;;;;;;4.82;1.38;;;16.10;99.90;;;;;;5042878;28;20045;-67
2022/10/09 11:22:35;;;;;;;4.50;1.10;;;16.10;99.90;;;;;;5042491;28;20098;-66
2022/10/09 11:25:31;;;;;;;9.85;1.90;;;16.10;99.90;;;;;;5040769;28;20055;-66
2022/10/09 11:28:12;;;;;;;3.42;1.02;;;16.10;99.90;;;;;;5025246;28;20049;-62
2022/10/09 11:31:07;;;;;;;12.55;1.67;;;16.10;99.90;;;;;;5041101;28;20055;-66
2022/10/09 11:33:51;;;;;;;5.97;1.10;;;16.10;99.90;;;;;;5041691;28;20085;-65
2022/10/09 11:36:36;;;;;;;5.78;1.38;;;16.00;99.90;;;;;;5025975;28;20463;-64
2022/10/09 11:39:05;;;;;;;7.22;1.33;;;16.20;99.90;;;;;;5029330;28;20049;-68
2022/10/09 11:41:31;;;;;;;6.70;1.48;;;16.20;99.90;;;;;;5030697;28;20071;-66
2022/10/09 11:44:04;;;;;;;4.57;1.40;;;16.10;99.90;;;;;;5030279;28;20053;-66
2022/10/09 11:46:55;;;;;;;6.10;1.85;;;16.10;99.90;;;;;;5047150;28;20048;-66
2022/10/09 11:49:58;;;;;;;8.35;1.65;;;16.10;99.90;;;;;;5044724;28;20602;-67
2022/10/09 11:53:02;;;;;;;8.57;1.70;;;16.10;99.90;;;;;;5044548;28;20585;-66
2022/10/09 11:55:30;;;;;;;12.65;1.73;;;16.20;99.90;;;;;;5046275;28;20131;-67
2022/10/09 11:58:27;;;;;;;8.75;1.30;;;16.20;99.90;;;;;;5047271;28;20045;-66
2022/10/09 12:00:55;;;;;;;12.45;1.92;;;16.20;99.90;;;;;;5025641;28;20059;-65
2022/10/09 12:03:26;;;;;;;4.70;1.25;;;16.20;99.90;;;;;;5030335;28;20053;-66
2022/10/09 12:06:01;;;;;;;7.85;1.80;;;16.30;99.90;;;;;;5048212;28;20072;-65
2022/10/09 12:08:28;;;;;;;8.70;2.72;;;16.40;99.90;;;;;;5030140;28;20048;-66
2022/10/09 12:11:11;;;;;;;5.70;1.70;;;16.40;99.90;;;;;;5048737;28;20045;-64
2022/10/09 12:13:39;;;;;;;6.05;1.02;;;16.50;99.90;;;;;;5048006;28;20061;-68
2022/10/09 12:16:38;;;;;;;7.43;1.42;;;16.60;99.90;;;;;;5048120;28;20052;-69
2022/10/09 12:19:10;;;;;;;6.47;1.20;;;16.60;99.90;;;;;;5046618;28;20049;-65
2022/10/09 12:21:47;;;;;;;4.32;1.10;;;16.70;99.90;;;;;;5030308;28;20135;-67
2022/10/09 12:24:21;;;;;;;9.32;2.65;;;16.70;99.90;;;;;;5030554;28;20045;-64
2022/10/09 12:26:50;;;;;;;7.00;1.70;;;16.60;99.90;;;;;;5030084;28;20057;-67
2022/10/09 12:29:24;;;;;;;5.13;1.08;;;16.70;99.90;;;;;;5047787;28;20396;-66
2022/10/09 12:32:22;;;;;;;7.55;1.30;;;16.70;99.90;;;;;;5047211;28;20049;-65
2022/10/09 12:34:50;;;;;;;5.65;1.70;;;16.70;99.90;;;;;;5019786;28;20049;-67
2022/10/09 12:37:19;;;;;;;4.50;1.15;;;16.70;99.90;;;;;;5028530;28;20053;-67
2022/10/09 12:39:46;;;;;;;7.53;1.42;;;16.70;99.90;;;;;;5045349;28;20529;-66
2022/10/09 12:42:21;;;;;;;6.57;0.90;;;16.80;99.90;;;;;;5047103;28;20503;-68
2022/10/09 12:44:52;;;;;;;5.22;1.10;;;16.90;99.90;;;;;;5045902;28;20132;-68
2022/10/09 12:47:22;;;;;;;12.70;2.15;;;16.90;99.90;;;;;;5048161;28;20505;-66
2022/10/09 12:50:16;;;;;;;6.65;1.33;;;16.90;99.90;;;;;;5028190;28;20503;-67
2022/10/09 12:53:13;;;;;;;7.05;1.30;;;16.90;99.50;;;;;;5047852;28;20052;-67
2022/10/09 12:55:42;;;;;;;3.95;1.02;;;16.90;99.80;;;;;;5018970;28;20456;-64
2022/10/09 12:58:22;;;;;;;4.68;1.23;;;16.90;99.90;;;;;;5046226;28;20059;-67
2022/10/09 13:00:53;;;;;;;2.83;0.95;;;16.90;99.90;;;;;;5044775;28;20495;-65
2022/10/09 13:03:24;;;;;;;6.18;1.13;;;16.90;99.10;;;;;;5025296;28;20052;-66
2022/10/09 13:05:51;;;;;;;3.20;0.80;;;16.90;99.90;;;;;;5028010;28;20447;-65
2022/10/09 13:08:27;;;;;;;6.15;1.73;;;16.90;98.60;;;;;;5032022;28;20052;-69
2022/10/09 13:10:54;;;;;;;3.40;1.00;;;17.00;98.50;;;;;;5031548;28;20124;-65
2022/10/09 13:13:24;;;;;;;3.60;0.60;;;17.00;99.90;;;;;;5031720;28;20053;-66
2022/10/09 13:16:09;;;;;;;10.63;1.58;;;17.10;98.10;;;;;;5048883;28;20053;-62